Time;durP1;ratioP1;P1;durP2;ratioP2;P2;SDS_P1;SDS_P2;PMS_P1;PMS_P2;Temp;Humidity;BMP_temperature;BMP_pressure;BME280_temperature;BME280_humidity;BME280_pressure;Samples;Min_cycle;Max_cycle;Signal;HPM_P1;HPM_P2
2022/09/30 00:01:31;;;;;;;19.73;8.67;;;11.20;97.60;;;;;;4988288;28;20337;-59
2022/09/30 00:03:58;;;;;;;18.17;9.90;;;11.20;97.60;;;;;;4975887;28;20196;-59
2022/09/30 00:06:26;;;;;;;14.77;9.23;;;11.30;97.60;;;;;;4981526;28;20196;-59
2022/09/30 00:08:52;;;;;;;11.30;8.67;;;11.30;97.60;;;;;;4994580;28;20219;-59
2022/09/30 00:11:27;;;;;;;12.47;9.23;;;11.30;97.60;;;;;;4966092;28;20197;-59
2022/09/30 00:13:54;;;;;;;10.67;8.47;;;11.30;97.60;;;;;;4991969;28;20220;-59
2022/09/30 00:16:21;;;;;;;12.13;9.33;;;11.30;97.60;;;;;;4982419;28;20227;-58
2022/09/30 00:18:47;;;;;;;11.60;8.33;;;11.30;97.60;;;;;;5013900;28;20203;-59
2022/09/30 00:21:17;;;;;;;9.23;7.77;;;11.30;97.60;;;;;;4980702;28;20195;-58
2022/09/30 00:23:43;;;;;;;11.13;8.70;;;11.30;97.60;;;;;;4970117;28;20200;-59
2022/09/30 00:26:15;;;;;;;12.50;8.37;;;11.30;97.60;;;;;;4981495;28;20197;-59
2022/09/30 00:28:42;;;;;;;11.43;8.87;;;11.30;97.60;;;;;;4981139;28;20235;-59
2022/09/30 00:31:12;;;;;;;29.67;23.50;;;11.30;97.60;;;;;;4993987;28;20267;-59
2022/09/30 00:33:38;;;;;;;26.90;21.47;;;11.30;97.60;;;;;;4995419;28;20192;-59
2022/09/30 00:36:04;;;;;;;29.43;20.90;;;11.30;97.60;;;;;;5014953;28;20245;-59
2022/09/30 00:38:30;;;;;;;26.27;20.33;;;11.30;97.60;;;;;;4978250;28;20208;-59
2022/09/30 00:40:58;;;;;;;26.67;20.97;;;11.30;97.60;;;;;;4986480;28;20180;-59
2022/09/30 00:43:45;;;;;;;25.70;20.97;;;11.30;97.60;;;;;;5037338;28;20243;-59
2022/09/30 00:46:38;;;;;;;23.83;18.80;;;11.30;97.60;;;;;;4974833;28;20196;-59
2022/09/30 00:49:16;;;;;;;29.33;25.03;;;11.30;97.60;;;;;;4985333;28;20196;-59
2022/09/30 00:51:51;;;;;;;25.00;19.00;;;11.30;97.60;;;;;;4986768;28;20205;-59
2022/09/30 00:54:25;;;;;;;18.23;14.63;;;11.30;97.60;;;;;;5028698;28;20195;-59
2022/09/30 00:56:59;;;;;;;16.70;12.57;;;11.30;97.60;;;;;;4977514;28;20243;-57
2022/09/30 00:59:30;;;;;;;16.33;10.50;;;11.30;97.60;;;;;;4975237;28;20184;-58
2022/09/30 01:01:56;;;;;;;11.17;9.63;;;11.30;97.60;;;;;;5007537;28;20288;-58
2022/09/30 01:04:24;;;;;;;12.93;9.83;;;11.20;97.60;;;;;;4998370;28;20207;-58
2022/09/30 01:06:50;;;;;;;18.27;14.27;;;11.20;97.60;;;;;;4994763;28;20196;-58
2022/09/30 01:09:17;;;;;;;19.93;16.03;;;11.20;97.60;;;;;;4989393;28;20200;-58
2022/09/30 01:11:43;;;;;;;17.20;12.90;;;11.20;97.60;;;;;;4972291;28;20192;-58
2022/09/30 01:14:18;;;;;;;16.30;11.87;;;11.20;97.60;;;;;;5007914;28;20189;-58
2022/09/30 01:16:47;;;;;;;12.33;9.40;;;11.20;97.60;;;;;;4991209;28;20221;-58
2022/09/30 01:19:44;;;;;;;21.20;18.50;;;11.30;97.60;;;;;;5014064;28;20271;-58
2022/09/30 01:22:25;;;;;;;32.70;27.03;;;11.20;97.60;;;;;;5025453;28;20175;-58
2022/09/30 01:25:18;;;;;;;26.17;21.30;;;11.20;97.60;;;;;;5013299;28;20548;-58
2022/09/30 01:28:02;;;;;;;35.50;26.63;;;11.20;97.60;;;;;;5014178;28;20239;-58
2022/09/30 01:31:05;;;;;;;36.23;25.47;;;11.20;97.60;;;;;;5023002;28;20196;-58
2022/09/30 01:33:52;;;;;;;32.60;24.63;;;11.30;97.60;;;;;;4988214;28;20183;-58
2022/09/30 01:36:26;;;;;;;22.77;19.20;;;11.30;97.60;;;;;;5012148;28;20232;-57
2022/09/30 01:39:13;;;;;;;21.87;18.67;;;11.20;97.60;;;;;;5022287;28;20190;-58
2022/09/30 01:41:55;;;;;;;24.47;19.90;;;11.20;97.60;;;;;;5000065;28;20230;-58
2022/09/30 01:44:36;;;;;;;21.17;15.00;;;11.20;97.60;;;;;;5019022;28;20199;-58
2022/09/30 01:47:25;;;;;;;11.47;10.20;;;11.20;97.60;;;;;;5007059;28;20195;-58
2022/09/30 01:50:06;;;;;;;17.90;13.97;;;11.20;97.60;;;;;;5021447;28;20253;-58
2022/09/30 01:52:40;;;;;;;15.37;13.37;;;11.30;97.60;;;;;;4977340;28;20199;-58
2022/09/30 01:55:23;;;;;;;19.80;16.23;;;11.30;97.60;;;;;;4982175;28;20239;-58
2022/09/30 01:58:07;;;;;;;12.87;10.80;;;11.30;97.60;;;;;;4978038;28;20184;-58
2022/09/30 02:00:38;;;;;;;13.50;10.57;;;11.20;97.50;;;;;;4976467;28;20185;-58
2022/09/30 02:03:30;;;;;;;12.70;10.30;;;11.20;97.50;;;;;;4983734;28;20189;-58
2022/09/30 02:06:06;;;;;;;16.17;10.57;;;11.20;97.60;;;;;;4978017;28;20208;-58
2022/09/30 02:08:43;;;;;;;14.87;10.90;;;11.30;97.60;;;;;;4987143;28;20226;-58
2022/09/30 02:11:41;;;;;;;16.77;10.27;;;11.20;97.50;;;;;;5014710;28;20184;-58
2022/09/30 02:14:24;;;;;;;12.80;10.47;;;11.20;97.50;;;;;;4985856;28;20238;-58
2022/09/30 02:17:16;;;;;;;13.20;10.90;;;11.30;97.60;;;;;;4994425;28;20267;-58
2022/09/30 02:20:04;;;;;;;16.80;10.50;;;11.30;97.60;;;;;;5012382;28;20193;-58
2022/09/30 02:22:42;;;;;;;13.63;10.03;;;11.30;97.60;;;;;;4977793;28;20280;-58
2022/09/30 02:25:16;;;;;;;14.83;11.40;;;11.30;97.50;;;;;;4978406;28;20184;-58
2022/09/30 02:27:57;;;;;;;17.73;11.10;;;11.30;97.50;;;;;;4993233;28;20194;-58
2022/09/30 02:30:22;;;;;;;15.53;10.83;;;11.30;97.60;;;;;;5027895;28;20286;-58
2022/09/30 02:32:51;;;;;;;14.37;11.20;;;11.30;97.50;;;;;;5030180;28;20300;-58
2022/09/30 02:35:26;;;;;;;15.03;10.73;;;11.30;97.60;;;;;;4992988;28;20327;-58
2022/09/30 02:38:04;;;;;;;12.40;9.37;;;11.30;97.60;;;;;;4986308;28;20271;-58
2022/09/30 02:40:38;;;;;;;15.77;9.97;;;11.30;97.50;;;;;;5015045;28;20196;-58
2022/09/30 02:43:05;;;;;;;13.20;9.90;;;11.20;97.50;;;;;;4993496;28;20209;-58
2022/09/30 02:45:48;;;;;;;13.50;10.13;;;11.20;97.50;;;;;;4965000;28;20199;-58
2022/09/30 02:48:44;;;;;;;16.00;11.10;;;11.20;97.50;;;;;;4982995;28;20192;-58
2022/09/30 02:51:36;;;;;;;12.27;9.90;;;11.10;97.50;;;;;;4995882;28;20193;-58
2022/09/30 02:54:14;;;;;;;16.07;10.90;;;11.20;97.50;;;;;;5000516;28;20219;-58
2022/09/30 02:57:05;;;;;;;14.57;11.30;;;11.20;97.50;;;;;;5018522;28;20204;-58
2022/09/30 02:59:31;;;;;;;17.67;11.50;;;11.20;97.50;;;;;;4992808;28;20189;-58
2022/09/30 03:01:57;;;;;;;13.60;9.90;;;11.30;97.50;;;;;;4970321;28;20194;-58
2022/09/30 03:04:29;;;;;;;13.97;10.10;;;11.20;97.50;;;;;;4978211;28;20189;-58
2022/09/30 03:06:55;;;;;;;13.80;10.07;;;11.20;97.50;;;;;;4983425;28;20282;-58
2022/09/30 03:09:25;;;;;;;13.47;10.90;;;11.10;97.50;;;;;;4977643;28;20243;-58
2022/09/30 03:12:05;;;;;;;16.57;10.90;;;11.20;97.50;;;;;;5024426;28;20204;-58
2022/09/30 03:14:53;;;;;;;11.93;10.30;;;11.10;97.50;;;;;;4980740;28;20197;-58
2022/09/30 03:17:29;;;;;;;14.10;10.40;;;11.10;97.50;;;;;;4992199;28;20197;-58
2022/09/30 03:20:09;;;;;;;15.70;11.27;;;11.20;97.50;;;;;;4982803;28;20192;-58
2022/09/30 03:22:57;;;;;;;14.13;10.53;;;11.20;97.50;;;;;;5013895;28;20180;-58
2022/09/30 03:25:50;;;;;;;21.93;10.93;;;11.20;97.50;;;;;;5019186;28;20196;-58
2022/09/30 03:28:22;;;;;;;17.37;9.80;;;11.10;97.50;;;;;;5016651;28;20196;-58
2022/09/30 03:30:54;;;;;;;12.67;10.07;;;11.10;97.50;;;;;;5017827;28;20344;-58
2022/09/30 03:33:35;;;;;;;13.00;9.43;;;11.00;97.50;;;;;;5015090;28;20240;-58
2022/09/30 03:36:26;;;;;;;13.80;9.03;;;10.90;97.50;;;;;;4999278;28;20303;-58
2022/09/30 03:39:00;;;;;;;13.47;9.50;;;11.00;97.50;;;;;;5001137;28;20200;-58
2022/09/30 03:41:50;;;;;;;14.87;10.20;;;11.00;97.50;;;;;;5013811;28;20186;-58
2022/09/30 03:44:41;;;;;;;16.27;10.27;;;11.00;97.50;;;;;;4986140;28;20193;-58
2022/09/30 03:47:10;;;;;;;13.43;10.13;;;11.00;97.50;;;;;;5000896;28;20196;-58
2022/09/30 03:49:41;;;;;;;15.37;10.03;;;11.00;97.50;;;;;;4990128;28;20193;-58
2022/09/30 03:52:11;;;;;;;14.33;9.77;;;11.00;97.50;;;;;;4983761;28;20186;-58
2022/09/30 03:54:49;;;;;;;15.53;10.50;;;11.00;97.50;;;;;;4994559;28;20209;-58
2022/09/30 03:57:15;;;;;;;13.57;9.73;;;11.00;97.50;;;;;;4987901;28;20200;-58
2022/09/30 03:59:41;;;;;;;15.60;9.77;;;11.00;97.50;;;;;;4983475;28;20195;-58
2022/09/30 04:02:11;;;;;;;14.33;10.47;;;11.00;97.50;;;;;;4998351;28;20184;-59
2022/09/30 04:04:38;;;;;;;13.33;10.40;;;11.00;97.50;;;;;;4979559;28;20208;-59
2022/09/30 04:07:04;;;;;;;14.00;10.17;;;11.00;97.50;;;;;;4975043;28;20284;-59
2022/09/30 04:09:30;;;;;;;13.27;9.80;;;11.00;97.50;;;;;;4977930;28;20289;-59
2022/09/30 04:11:56;;;;;;;14.87;10.30;;;11.00;97.50;;;;;;4977674;28;20219;-58
2022/09/30 04:14:21;;;;;;;16.03;10.83;;;11.00;97.50;;;;;;4977031;28;20311;-58
2022/09/30 04:16:47;;;;;;;15.50;10.97;;;11.00;97.50;;;;;;4977702;28;20243;-58
2022/09/30 04:19:12;;;;;;;15.50;10.33;;;11.00;97.50;;;;;;4990978;28;20188;-58
2022/09/30 04:21:38;;;;;;;18.97;10.47;;;11.00;97.50;;;;;;4961757;28;20193;-58
2022/09/30 04:24:04;;;;;;;14.63;10.60;;;11.00;97.50;;;;;;4979698;28;20201;-58
2022/09/30 04:26:30;;;;;;;17.07;10.00;;;11.10;97.50;;;;;;5042075;28;20227;-59
2022/09/30 04:28:57;;;;;;;15.03;9.70;;;11.00;97.50;;;;;;4963159;28;20221;-58
2022/09/30 04:31:23;;;;;;;16.60;9.47;;;11.00;97.50;;;;;;4973541;28;20219;-58
2022/09/30 04:33:49;;;;;;;19.83;9.30;;;11.10;97.50;;;;;;4976373;28;20204;-58
2022/09/30 04:36:16;;;;;;;15.77;9.60;;;11.00;97.50;;;;;;4988596;28;20245;-58
2022/09/30 04:38:42;;;;;;;15.03;9.60;;;11.10;97.50;;;;;;4986673;28;20196;-58
2022/09/30 04:41:14;;;;;;;14.03;9.30;;;11.00;97.50;;;;;;4998469;28;20224;-58
2022/09/30 04:43:45;;;;;;;12.23;8.83;;;11.00;97.50;;;;;;4982431;28;20189;-58
2022/09/30 04:46:15;;;;;;;15.10;9.33;;;11.00;97.50;;;;;;4971926;28;20188;-58
2022/09/30 04:48:44;;;;;;;13.80;9.20;;;11.10;97.50;;;;;;4969768;28;20296;-58
2022/09/30 04:51:11;;;;;;;13.37;8.70;;;11.10;97.50;;;;;;4989759;28;20196;-58
2022/09/30 04:53:38;;;;;;;8.70;7.13;;;11.10;97.50;;;;;;4991922;28;20200;-58
2022/09/30 04:56:04;;;;;;;11.93;7.50;;;11.00;97.50;;;;;;4980066;28;20220;-58
2022/09/30 04:58:31;;;;;;;7.97;6.53;;;11.00;97.50;;;;;;4978347;28;20221;-58
2022/09/30 05:01:05;;;;;;;8.73;6.27;;;10.90;97.40;;;;;;4999221;28;20201;-58
2022/09/30 05:03:32;;;;;;;8.87;6.77;;;10.90;97.40;;;;;;4979168;28;20184;-59
2022/09/30 05:05:58;;;;;;;8.97;7.10;;;10.90;97.40;;;;;;4991529;28;20196;-58
2022/09/30 05:08:23;;;;;;;9.43;7.20;;;11.00;97.40;;;;;;4970093;28;20212;-58
2022/09/30 05:10:57;;;;;;;9.27;6.30;;;11.00;97.40;;;;;;4974559;28;20253;-60
2022/09/30 05:13:24;;;;;;;11.70;7.20;;;11.00;97.40;;;;;;4980964;28;20284;-59
2022/09/30 05:15:50;;;;;;;12.73;7.63;;;11.00;97.40;;;;;;4996251;28;20236;-58
2022/09/30 05:18:18;;;;;;;12.37;7.70;;;11.00;97.40;;;;;;4999031;28;20227;-58
2022/09/30 05:20:43;;;;;;;8.30;6.77;;;11.00;97.40;;;;;;4965471;28;20197;-58
2022/09/30 05:23:09;;;;;;;8.03;6.60;;;11.00;97.40;;;;;;4961977;28;20193;-58
2022/09/30 05:25:35;;;;;;;11.07;6.80;;;11.10;97.40;;;;;;4965898;28;20200;-58
2022/09/30 05:28:01;;;;;;;14.27;8.00;;;11.10;97.40;;;;;;5000409;28;20269;-58
2022/09/30 05:30:27;;;;;;;8.73;6.73;;;11.10;97.40;;;;;;4991266;28;20197;-58
2022/09/30 05:32:53;;;;;;;7.17;5.67;;;11.10;97.40;;;;;;4982893;28;20204;-58
2022/09/30 05:35:18;;;;;;;10.53;6.43;;;10.90;97.40;;;;;;4976625;28;20780;-58
2022/09/30 05:37:44;;;;;;;8.20;6.00;;;10.90;97.40;;;;;;4994862;28;20208;-59
2022/09/30 05:40:10;;;;;;;9.23;6.00;;;11.00;97.40;;;;;;4965085;28;20197;-58
2022/09/30 05:42:35;;;;;;;10.00;6.20;;;11.10;97.40;;;;;;5003607;28;20199;-58
2022/09/30 05:45:05;;;;;;;12.20;6.50;;;11.10;97.40;;;;;;4988730;28;20206;-58
2022/09/30 05:47:32;;;;;;;7.50;6.40;;;11.10;97.40;;;;;;5003237;28;20192;-58
2022/09/30 05:49:58;;;;;;;6.30;5.50;;;11.20;97.40;;;;;;4989409;28;20189;-58
2022/09/30 05:52:24;;;;;;;8.23;6.27;;;11.10;97.40;;;;;;4987078;28;20185;-58
2022/09/30 05:54:50;;;;;;;7.10;5.80;;;11.10;97.40;;;;;;4990068;28;20216;-58
2022/09/30 05:57:16;;;;;;;8.70;6.23;;;11.10;97.40;;;;;;4978498;28;20275;-58
2022/09/30 05:59:42;;;;;;;9.33;6.17;;;11.10;97.40;;;;;;5019421;28;20188;-58
2022/09/30 06:02:12;;;;;;;10.37;6.13;;;11.20;97.40;;;;;;4994441;28;20192;-59
2022/09/30 06:04:37;;;;;;;9.87;6.33;;;11.20;97.50;;;;;;4980932;28;20188;-59
2022/09/30 06:07:04;;;;;;;8.10;5.40;;;11.30;97.50;;;;;;4995074;28;20207;-58
2022/09/30 06:09:30;;;;;;;8.50;5.43;;;11.30;97.50;;;;;;4981704;28;20260;-58
2022/09/30 06:11:57;;;;;;;7.53;5.60;;;11.30;97.40;;;;;;4996797;28;20255;-58
2022/09/30 06:14:23;;;;;;;7.23;5.90;;;11.30;97.40;;;;;;4958592;28;20205;-58
2022/09/30 06:16:49;;;;;;;8.00;5.50;;;11.30;97.40;;;;;;5040485;28;20216;-58
2022/09/30 06:19:15;;;;;;;5.37;4.83;;;11.40;97.40;;;;;;4971156;28;20204;-58
2022/09/30 06:21:40;;;;;;;6.57;5.47;;;11.30;97.40;;;;;;4955065;28;20189;-58
2022/09/30 06:24:11;;;;;;;7.27;5.00;;;11.30;97.40;;;;;;4975281;28;20201;-58
2022/09/30 06:26:38;;;;;;;7.23;5.30;;;11.30;97.40;;;;;;4994242;28;20243;-59
2022/09/30 06:29:04;;;;;;;7.40;6.00;;;11.30;97.30;;;;;;4990851;28;20236;-59
2022/09/30 06:31:30;;;;;;;9.00;6.13;;;11.40;97.30;;;;;;4977056;28;20192;-59
2022/09/30 06:33:56;;;;;;;8.50;6.33;;;11.40;97.40;;;;;;5026998;28;20201;-59
2022/09/30 06:36:22;;;;;;;10.07;6.07;;;11.40;97.30;;;;;;4992086;28;20378;-59
2022/09/30 06:38:53;;;;;;;9.37;5.90;;;11.50;97.30;;;;;;4974017;28;20200;-59
2022/09/30 06:41:19;;;;;;;7.87;5.93;;;11.50;97.30;;;;;;4986255;28;20184;-59
2022/09/30 06:43:44;;;;;;;6.63;5.37;;;11.50;97.30;;;;;;4984609;28;20185;-59
2022/09/30 06:46:11;;;;;;;8.27;6.33;;;11.50;97.30;;;;;;4976137;28;20197;-59
2022/09/30 06:48:37;;;;;;;7.67;5.53;;;11.50;97.30;;;;;;5000415;28;20204;-59
2022/09/30 06:51:03;;;;;;;6.97;5.70;;;11.60;97.40;;;;;;4996106;28;20197;-59
2022/09/30 06:53:28;;;;;;;7.10;6.40;;;11.60;97.30;;;;;;4953191;28;20208;-59
2022/09/30 06:55:57;;;;;;;7.83;5.97;;;11.60;97.30;;;;;;4990579;28;20295;-59
2022/09/30 06:58:23;;;;;;;6.90;5.13;;;11.70;97.40;;;;;;4954054;28;20197;-59
2022/09/30 07:01:02;;;;;;;7.27;6.03;;;11.70;97.40;;;;;;5009877;28;20189;-59
2022/09/30 07:03:30;;;;;;;6.43;5.77;;;11.70;97.30;;;;;;4992126;28;20188;-59
2022/09/30 07:06:01;;;;;;;7.27;5.57;;;11.70;97.30;;;;;;4980109;28;20193;-59
2022/09/30 07:08:30;;;;;;;7.20;5.73;;;11.80;97.40;;;;;;4986885;28;20188;-59
2022/09/30 07:10:57;;;;;;;7.37;5.20;;;11.80;97.40;;;;;;4977030;28;20211;-58
2022/09/30 07:13:23;;;;;;;7.10;6.07;;;11.80;97.30;;;;;;4991110;28;20193;-58
2022/09/30 07:15:53;;;;;;;8.50;5.37;;;11.80;97.30;;;;;;4980543;28;20216;-58
2022/09/30 07:18:19;;;;;;;7.97;5.83;;;11.80;97.30;;;;;;5003151;28;20189;-58
2022/09/30 07:20:52;;;;;;;8.10;6.50;;;11.80;97.30;;;;;;5012085;28;20365;-58
2022/09/30 07:23:19;;;;;;;6.47;5.77;;;11.80;97.30;;;;;;4974288;28;20423;-58
2022/09/30 07:25:55;;;;;;;10.70;6.07;;;11.90;97.30;;;;;;4981097;28;20197;-58
2022/09/30 07:28:26;;;;;;;6.77;5.30;;;11.90;97.30;;;;;;4981839;28;20224;-58
2022/09/30 07:30:55;;;;;;;7.93;5.60;;;12.00;97.30;;;;;;4976220;28;20204;-58
2022/09/30 07:33:25;;;;;;;6.93;5.73;;;12.00;97.30;;;;;;4975830;28;20201;-58
2022/09/30 07:35:56;;;;;;;10.67;5.10;;;12.00;97.30;;;;;;5023326;28;20268;-58
2022/09/30 07:38:24;;;;;;;7.97;5.00;;;12.10;97.30;;;;;;4982661;28;20188;-59
2022/09/30 07:41:03;;;;;;;6.10;4.90;;;12.00;97.30;;;;;;4977875;28;20201;-58
2022/09/30 07:43:36;;;;;;;5.80;5.03;;;12.10;97.30;;;;;;4976705;28;20271;-58
2022/09/30 07:46:08;;;;;;;6.73;5.13;;;12.10;97.30;;;;;;5030980;28;20208;-58
2022/09/30 07:48:49;;;;;;;5.90;4.67;;;12.10;97.30;;;;;;4992236;28;20276;-59
2022/09/30 07:51:16;;;;;;;4.73;4.00;;;12.00;97.10;;;;;;4989763;28;20196;-58
2022/09/30 07:53:44;;;;;;;5.03;4.20;;;12.10;97.10;;;;;;5023677;28;20188;-58
2022/09/30 07:56:11;;;;;;;4.37;3.97;;;12.20;97.20;;;;;;4993847;28;20216;-58
2022/09/30 07:58:38;;;;;;;4.53;3.90;;;12.20;97.20;;;;;;4993704;28;20187;-58
2022/09/30 08:01:07;;;;;;;5.27;4.57;;;12.30;97.20;;;;;;4972924;28;20201;-58
2022/09/30 08:03:37;;;;;;;5.33;3.80;;;12.30;97.10;;;;;;4986093;28;20201;-58
2022/09/30 08:06:15;;;;;;;4.93;4.13;;;12.30;97.10;;;;;;4963931;28;20272;-58
2022/09/30 08:08:43;;;;;;;4.80;4.20;;;12.40;97.10;;;;;;4987896;28;20192;-58
2022/09/30 08:11:09;;;;;;;4.40;4.00;;;12.30;97.00;;;;;;4969015;28;20255;-58
2022/09/30 08:13:35;;;;;;;5.33;4.50;;;12.40;97.00;;;;;;4973368;28;20201;-59
2022/09/30 08:16:01;;;;;;;4.97;3.87;;;12.40;97.10;;;;;;4982640;28;20284;-58
2022/09/30 08:18:27;;;;;;;7.33;4.03;;;12.50;97.10;;;;;;4990986;28;20194;-58
2022/09/30 08:20:53;;;;;;;7.00;4.17;;;12.50;97.00;;;;;;4990392;28;20196;-58
2022/09/30 08:23:19;;;;;;;5.80;4.83;;;12.50;96.90;;;;;;4975968;28;20278;-59
2022/09/30 08:25:45;;;;;;;8.10;3.90;;;12.50;96.80;;;;;;4975986;28;20195;-58
2022/09/30 08:28:12;;;;;;;6.10;3.27;;;12.50;96.80;;;;;;5008683;28;20201;-58
2022/09/30 08:30:38;;;;;;;4.23;3.83;;;12.40;96.30;;;;;;5018664;28;20193;-58
2022/09/30 08:33:05;;;;;;;4.43;3.47;;;12.40;96.30;;;;;;4977193;28;20207;-58
2022/09/30 08:35:33;;;;;;;5.30;4.80;;;12.50;96.30;;;;;;5018275;28;20248;-58
2022/09/30 08:37:58;;;;;;;5.77;4.30;;;12.60;96.50;;;;;;5005083;28;21494;-58
2022/09/30 08:40:28;;;;;;;6.67;5.67;;;12.50;96.00;;;;;;4969890;28;20193;-58
2022/09/30 08:43:07;;;;;;;9.83;6.73;;;12.30;95.40;;;;;;4981628;28;20188;-58
2022/09/30 08:46:07;;;;;;;8.00;5.03;;;12.40;96.00;;;;;;4983781;28;20185;-58
2022/09/30 08:49:14;;;;;;;7.00;5.93;;;12.40;95.90;;;;;;4988516;28;20196;-58
2022/09/30 08:51:46;;;;;;;6.00;5.33;;;12.30;96.00;;;;;;4978836;28;20200;-58
2022/09/30 08:54:19;;;;;;;6.50;4.90;;;12.40;96.10;;;;;;4988857;28;20207;-58
2022/09/30 08:56:45;;;;;;;5.73;4.50;;;12.50;96.30;;;;;;5021045;28;20231;-58
2022/09/30 08:59:31;;;;;;;5.40;4.67;;;12.60;96.40;;;;;;4983132;28;20189;-58
2022/09/30 09:02:21;;;;;;;5.90;4.67;;;12.60;96.50;;;;;;4986426;28;20189;-59
2022/09/30 09:04:51;;;;;;;9.90;7.40;;;12.70;96.60;;;;;;5017228;28;20216;-58
2022/09/30 09:07:42;;;;;;;12.23;7.97;;;12.80;96.70;;;;;;4980296;28;20267;-58
2022/09/30 09:10:16;;;;;;;9.30;7.83;;;12.80;96.70;;;;;;4988401;28;20193;-58
2022/09/30 09:12:48;;;;;;;11.27;8.37;;;12.80;96.60;;;;;;5017551;28;20192;-58
2022/09/30 09:15:29;;;;;;;9.00;7.43;;;12.80;96.70;;;;;;5007940;28;20196;-58
2022/09/30 09:18:10;;;;;;;8.17;7.37;;;12.80;96.70;;;;;;5019953;28;20195;-58
2022/09/30 09:20:43;;;;;;;10.77;8.17;;;13.00;96.80;;;;;;5012502;28;20192;-58
2022/09/30 09:23:11;;;;;;;8.50;6.90;;;13.10;97.00;;;;;;4998339;28;20217;-58
2022/09/30 09:25:38;;;;;;;7.87;7.07;;;13.20;97.00;;;;;;4968190;28;20201;-58
2022/09/30 09:28:22;;;;;;;8.50;7.30;;;13.30;97.10;;;;;;4982987;28;20228;-58
2022/09/30 09:30:55;;;;;;;6.90;5.57;;;13.40;97.10;;;;;;5012033;28;20208;-58
2022/09/30 09:33:26;;;;;;;8.77;5.97;;;13.60;97.10;;;;;;4975112;28;20280;-58
2022/09/30 09:36:11;;;;;;;6.27;5.67;;;13.50;97.00;;;;;;5006097;28;20252;-58
2022/09/30 09:39:14;;;;;;;6.90;5.90;;;13.60;96.90;;;;;;4982786;28;20251;-58
2022/09/30 09:41:50;;;;;;;7.13;6.43;;;13.60;96.90;;;;;;5016852;28;20216;-58
2022/09/30 09:44:21;;;;;;;7.37;5.13;;;13.60;96.80;;;;;;5022663;28;20308;-58
2022/09/30 09:46:51;;;;;;;8.77;4.90;;;13.40;96.60;;;;;;5007485;28;20279;-58
2022/09/30 09:49:22;;;;;;;6.20;5.60;;;13.30;95.70;;;;;;4981287;28;20194;-58
2022/09/30 09:52:06;;;;;;;6.10;5.50;;;13.30;95.90;;;;;;5009011;28;20192;-58
2022/09/30 09:54:36;;;;;;;5.93;4.87;;;13.50;96.50;;;;;;5012337;28;20188;-58
2022/09/30 09:57:17;;;;;;;4.93;4.10;;;13.70;96.70;;;;;;4997930;28;20216;-58
2022/09/30 09:59:57;;;;;;;4.63;4.23;;;13.80;96.70;;;;;;4985442;28;20238;-58
2022/09/30 10:02:31;;;;;;;4.93;4.43;;;13.90;96.70;;;;;;5017953;28;20188;-58
2022/09/30 10:05:02;;;;;;;5.57;4.40;;;13.80;96.60;;;;;;4987815;28;20192;-58
2022/09/30 10:07:31;;;;;;;4.03;3.60;;;13.80;95.90;;;;;;4975140;28;20220;-58
2022/09/30 10:10:18;;;;;;;3.27;2.90;;;13.80;95.80;;;;;;4987613;28;20271;-58
2022/09/30 10:12:46;;;;;;;2.90;2.70;;;13.80;96.10;;;;;;4984296;28;20192;-58
2022/09/30 10:15:15;;;;;;;3.00;2.63;;;13.80;96.10;;;;;;5001894;28;20193;-58
2022/09/30 10:17:41;;;;;;;3.20;2.30;;;13.90;96.20;;;;;;5005973;28;20206;-58
2022/09/30 10:20:25;;;;;;;2.57;2.23;;;13.80;95.50;;;;;;4964006;28;20193;-58
2022/09/30 10:23:22;;;;;;;2.67;2.33;;;13.80;95.60;;;;;;4986530;28;20202;-58
2022/09/30 10:26:13;;;;;;;2.80;2.00;;;14.00;94.80;;;;;;4984831;28;20205;-58
2022/09/30 10:28:54;;;;;;;2.10;2.00;;;14.00;95.00;;;;;;4986351;28;20197;-59
2022/09/30 10:31:35;;;;;;;1.63;1.53;;;14.10;95.60;;;;;;4974522;28;20205;-58
2022/09/30 10:34:20;;;;;;;2.70;1.77;;;14.10;95.70;;;;;;5018422;28;20204;-59
2022/09/30 10:36:47;;;;;;;2.00;1.80;;;14.20;95.10;;;;;;5008246;28;20217;-58
2022/09/30 10:39:24;;;;;;;3.30;2.10;;;14.30;95.90;;;;;;5007899;28;20181;-58
2022/09/30 10:41:59;;;;;;;2.10;1.80;;;14.40;96.10;;;;;;4978184;28;20190;-58
2022/09/30 10:44:26;;;;;;;1.80;1.70;;;14.30;95.60;;;;;;4992604;28;20185;-58
2022/09/30 10:46:57;;;;;;;2.07;1.70;;;14.40;95.70;;;;;;4976647;28;20197;-56
2022/09/30 10:49:22;;;;;;;1.90;1.80;;;14.50;96.10;;;;;;4988727;28;20221;-57
2022/09/30 10:51:48;;;;;;;1.90;1.70;;;14.60;96.20;;;;;;5018401;28;20215;-58
2022/09/30 10:54:39;;;;;;;2.03;1.70;;;14.70;96.30;;;;;;4972422;28;20208;-59
2022/09/30 10:57:12;;;;;;;2.53;1.83;;;14.80;96.30;;;;;;5020498;28;20213;-59
2022/09/30 10:59:41;;;;;;;1.97;1.77;;;14.80;96.40;;;;;;4989100;28;20209;-59
2022/09/30 11:02:29;;;;;;;2.90;1.80;;;14.90;96.40;;;;;;4981463;28;20189;-60
2022/09/30 11:05:17;;;;;;;1.83;1.73;;;15.00;96.30;;;;;;4985461;28;20189;-59
2022/09/30 11:08:03;;;;;;;1.07;1.00;;;14.90;95.60;;;;;;4994591;28;20189;-60
2022/09/30 11:10:29;;;;;;;1.77;1.50;;;14.90;94.70;;;;;;5014001;28;20189;-59
2022/09/30 11:13:15;;;;;;;2.80;1.53;;;14.90;95.00;;;;;;5011607;28;20288;-59
2022/09/30 11:16:02;;;;;;;2.13;1.30;;;14.90;91.50;;;;;;5013564;28;20294;-59
2022/09/30 11:18:46;;;;;;;1.60;1.50;;;15.00;93.30;;;;;;5021842;28;20227;-59
2022/09/30 11:21:17;;;;;;;1.50;1.20;;;15.10;94.40;;;;;;5022484;28;20243;-59
2022/09/30 11:24:06;;;;;;;1.60;1.50;;;15.10;95.20;;;;;;5009823;28;20204;-59
2022/09/30 11:26:53;;;;;;;2.03;1.50;;;15.10;94.90;;;;;;4992374;28;20180;-59
2022/09/30 11:29:59;;;;;;;1.77;1.43;;;15.20;94.20;;;;;;4991913;28;20243;-59
2022/09/30 11:33:02;;;;;;;1.57;1.33;;;15.30;95.10;;;;;;4981800;28;20189;-59
2022/09/30 11:35:40;;;;;;;1.23;1.13;;;15.30;94.60;;;;;;5013360;28;20236;-59
2022/09/30 11:38:09;;;;;;;1.60;1.30;;;15.30;95.10;;;;;;4990185;28;20204;-59
2022/09/30 11:40:38;;;;;;;2.80;1.60;;;15.30;94.60;;;;;;5015160;28;20188;-58
2022/09/30 11:43:31;;;;;;;1.40;1.30;;;15.20;94.80;;;;;;5023294;28;20192;-58
2022/09/30 11:46:16;;;;;;;1.40;1.30;;;15.30;95.10;;;;;;5019454;28;20204;-57
2022/09/30 11:49:13;;;;;;;1.57;1.30;;;15.30;95.20;;;;;;5017931;28;20196;-57
2022/09/30 11:52:08;;;;;;;1.40;1.30;;;15.30;95.10;;;;;;4979386;28;20192;-58
2022/09/30 11:55:05;;;;;;;3.17;1.53;;;15.30;95.00;;;;;;5016562;28;20201;-58
2022/09/30 11:57:42;;;;;;;1.40;1.30;;;15.40;94.60;;;;;;4991038;28;20255;-58
2022/09/30 12:00:16;;;;;;;1.37;1.27;;;15.30;92.00;;;;;;4979300;28;20194;-58
2022/09/30 12:02:50;;;;;;;1.33;1.23;;;15.30;93.30;;;;;;4988388;28;20188;-58
2022/09/30 12:05:24;;;;;;;1.73;1.60;;;15.40;94.20;;;;;;4976282;28;20236;-56
2022/09/30 12:08:05;;;;;;;3.30;1.50;;;15.60;93.60;;;;;;4983473;28;20180;-56
2022/09/30 12:10:42;;;;;;;2.23;1.47;;;15.80;94.60;;;;;;4986620;28;20209;-56
2022/09/30 12:13:24;;;;;;;2.07;1.67;;;15.80;94.00;;;;;;4988028;28;20197;-56
2022/09/30 12:15:54;;;;;;;4.00;1.40;;;15.80;93.50;;;;;;5017593;28;20261;-56
2022/09/30 12:18:51;;;;;;;1.70;1.60;;;15.80;93.70;;;;;;5000594;28;20203;-57
2022/09/30 12:21:36;;;;;;;1.70;1.60;;;15.70;93.40;;;;;;4995988;28;20283;-58
2022/09/30 12:24:13;;;;;;;2.00;1.70;;;15.40;92.80;;;;;;4992629;28;20181;-58
2022/09/30 12:26:40;;;;;;;1.80;1.40;;;15.30;92.40;;;;;;4984805;28;20203;-59
2022/09/30 12:32:30;;;;;;;2.43;1.50;;;15.70;92.40;;;;;;4985483;28;20208;-59
2022/09/30 12:35:18;;;;;;;1.30;1.20;;;16.20;91.90;;;;;;5019323;28;20243;-59
2022/09/30 12:37:50;;;;;;;1.50;1.40;;;16.80;91.00;;;;;;4985054;28;20196;-59
2022/09/30 12:40:27;;;;;;;3.30;1.50;;;17.00;91.10;;;;;;5007993;28;20244;-59
2022/09/30 12:42:53;;;;;;;1.50;1.40;;;16.90;89.90;;;;;;5021354;28;20188;-59
2022/09/30 12:45:53;;;;;;;2.47;1.10;;;16.80;89.40;;;;;;4987282;28;20199;-59
2022/09/30 12:48:21;;;;;;;1.70;1.60;;;16.70;89.90;;;;;;5019198;28;20239;-59
2022/09/30 12:50:55;;;;;;;1.73;1.50;;;16.60;89.80;;;;;;4976609;28;20224;-59
2022/09/30 12:53:28;;;;;;;2.23;1.37;;;16.60;91.00;;;;;;4978822;28;20211;-59
2022/09/30 12:56:03;;;;;;;1.83;1.20;;;16.50;90.50;;;;;;4972033;28;20210;-60
2022/09/30 12:58:37;;;;;;;1.30;1.20;;;16.40;90.10;;;;;;4987910;28;20188;-59
2022/09/30 13:01:13;;;;;;;1.30;1.20;;;16.50;90.40;;;;;;4990879;28;20198;-59
2022/09/30 13:03:51;;;;;;;1.20;1.10;;;16.60;90.70;;;;;;5002666;28;20177;-60
2022/09/30 13:06:20;;;;;;;1.20;1.10;;;16.50;91.00;;;;;;4974376;28;20243;-59
2022/09/30 13:08:56;;;;;;;2.30;1.10;;;16.40;90.80;;;;;;4984277;28;20186;-58
2022/09/30 13:11:36;;;;;;;2.57;1.20;;;16.30;89.90;;;;;;5015802;28;20192;-59
2022/09/30 13:14:18;;;;;;;2.37;1.10;;;16.20;91.50;;;;;;5007402;28;20216;-59
2022/09/30 13:17:04;;;;;;;1.30;1.20;;;16.10;91.30;;;;;;5012936;28;20210;-59
2022/09/30 13:19:43;;;;;;;2.27;1.33;;;15.90;91.80;;;;;;4989742;28;20258;-58